Time;durP1;ratioP1;P1;durP2;ratioP2;P2;SDS_P1;SDS_P2;PMS_P1;PMS_P2;Temp;Humidity;BMP_temperature;BMP_pressure;BME280_temperature;BME280_humidity;BME280_pressure;Samples;Min_cycle;Max_cycle;Signal;HPM_P1;HPM_P2
2023/09/19 00:00:20;;;;;;;5.40;5.30;;;15.30;99.90;;;;;;5089590;28;20450;-68
2023/09/19 00:02:48;;;;;;;5.47;5.37;;;15.30;99.90;;;;;;5083467;28;20462;-67
2023/09/19 00:05:15;;;;;;;5.70;5.60;;;15.40;99.90;;;;;;5073130;28;20544;-66
2023/09/19 00:07:43;;;;;;;5.77;5.67;;;15.40;99.90;;;;;;5079382;28;20474;-66
2023/09/19 00:10:12;;;;;;;5.40;5.30;;;15.40;99.90;;;;;;5085206;28;20458;-67
2023/09/19 00:12:43;;;;;;;5.37;5.27;;;15.40;99.90;;;;;;5088245;28;20458;-67
2023/09/19 00:15:11;;;;;;;5.60;5.50;;;15.30;99.90;;;;;;5079907;28;20458;-67
2023/09/19 00:17:40;;;;;;;5.70;5.60;;;15.40;99.90;;;;;;5090270;28;20458;-65
2023/09/19 00:20:12;;;;;;;5.53;5.43;;;15.30;99.90;;;;;;5077579;28;20462;-67
2023/09/19 00:22:41;;;;;;;5.90;5.80;;;15.30;99.90;;;;;;5090391;28;20450;-68
2023/09/19 00:25:11;;;;;;;5.97;5.87;;;15.30;99.90;;;;;;5090605;28;20462;-68
2023/09/19 00:27:42;;;;;;;5.90;5.80;;;15.30;99.90;;;;;;5080135;28;20476;-67
2023/09/19 00:30:14;;;;;;;5.63;5.53;;;15.20;99.90;;;;;;5067375;28;21382;-67
2023/09/19 00:32:44;;;;;;;5.90;5.80;;;15.20;99.90;;;;;;5070904;28;20502;-67
2023/09/19 00:35:11;;;;;;;5.77;5.67;;;15.20;99.90;;;;;;5055817;28;20464;-67
2023/09/19 00:37:39;;;;;;;6.13;6.03;;;15.20;99.90;;;;;;5068949;28;20921;-68
2023/09/19 00:40:11;;;;;;;6.30;6.20;;;15.20;99.90;;;;;;5065837;28;20490;-69
2023/09/19 00:42:39;;;;;;;5.70;5.60;;;15.20;99.90;;;;;;5059514;28;20582;-68
2023/09/19 00:45:09;;;;;;;5.80;5.70;;;15.20;99.90;;;;;;5066321;28;20824;-67
2023/09/19 00:47:36;;;;;;;5.67;5.57;;;15.10;99.90;;;;;;5052302;28;20467;-67
2023/09/19 00:50:07;;;;;;;5.83;5.73;;;15.20;99.90;;;;;;5063834;28;20474;-67
2023/09/19 00:52:36;;;;;;;5.50;5.40;;;15.10;99.90;;;;;;5061568;28;20447;-68
2023/09/19 00:55:04;;;;;;;5.70;5.60;;;15.20;99.90;;;;;;5061006;28;20529;-68
2023/09/19 00:57:33;;;;;;;5.37;5.27;;;15.10;99.90;;;;;;5066628;28;20467;-67
2023/09/19 01:00:04;;;;;;;5.67;5.57;;;15.10;99.90;;;;;;5055205;28;20475;-68
2023/09/19 01:02:32;;;;;;;5.13;5.07;;;15.10;99.90;;;;;;5066949;28;20529;-67
2023/09/19 01:05:01;;;;;;;5.60;5.50;;;15.10;99.90;;;;;;5060361;28;20494;-68
2023/09/19 01:07:33;;;;;;;5.57;5.47;;;15.10;99.90;;;;;;5065520;28;20459;-68
2023/09/19 01:10:01;;;;;;;5.80;5.70;;;15.10;99.90;;;;;;5058110;28;20585;-67
2023/09/19 01:12:40;;;;;;;5.50;5.40;;;15.10;99.90;;;;;;5059840;28;21300;-67
2023/09/19 01:15:17;;;;;;;5.50;5.40;;;15.10;99.90;;;;;;5053259;28;20463;-67
2023/09/19 01:17:48;;;;;;;5.13;5.10;;;15.10;99.90;;;;;;5068668;28;20969;-68
2023/09/19 01:20:32;;;;;;;5.40;5.30;;;15.10;99.90;;;;;;5060018;28;20505;-67
2023/09/19 01:23:11;;;;;;;5.47;5.37;;;15.10;99.90;;;;;;5068867;28;20869;-67
2023/09/19 01:26:08;;;;;;;5.47;5.37;;;15.10;99.90;;;;;;5065795;28;20972;-68
2023/09/19 01:28:43;;;;;;;5.07;5.07;;;15.10;99.90;;;;;;5059233;28;20581;-69
2023/09/19 01:31:13;;;;;;;5.77;5.67;;;15.10;99.90;;;;;;5079718;28;21025;-68
2023/09/19 01:33:59;;;;;;;5.73;5.63;;;15.10;99.90;;;;;;5086205;28;21219;-69
2023/09/19 01:36:27;;;;;;;6.17;6.07;;;15.20;99.90;;;;;;5086443;28;20506;-68
2023/09/19 01:38:55;;;;;;;6.37;6.27;;;15.20;99.90;;;;;;5072009;28;20469;-68
2023/09/19 01:41:31;;;;;;;6.43;6.33;;;15.20;99.90;;;;;;5072566;28;20574;-68
2023/09/19 01:44:03;;;;;;;6.30;6.20;;;15.20;99.90;;;;;;5081314;28;20450;-68
2023/09/19 01:46:36;;;;;;;6.60;6.50;;;15.20;99.90;;;;;;5085091;28;20446;-68
2023/09/19 01:49:12;;;;;;;6.90;6.80;;;15.20;99.90;;;;;;5073265;28;20482;-68
2023/09/19 01:51:56;;;;;;;7.20;7.10;;;15.20;99.90;;;;;;5079602;28;20489;-70
2023/09/19 01:54:28;;;;;;;6.77;6.67;;;15.20;99.90;;;;;;5075849;28;20830;-68
2023/09/19 01:57:03;;;;;;;7.10;7.00;;;15.20;99.90;;;;;;5086415;28;20469;-68
2023/09/19 01:59:36;;;;;;;7.50;7.40;;;15.10;99.90;;;;;;5088497;28;20484;-68
2023/09/19 02:02:05;;;;;;;6.97;6.87;;;15.10;99.90;;;;;;5088324;28;20494;-68
2023/09/19 02:04:34;;;;;;;7.07;6.97;;;15.10;99.90;;;;;;5085821;28;20465;-67
2023/09/19 02:07:02;;;;;;;7.43;7.33;;;15.10;99.90;;;;;;5082226;28;20504;-68
2023/09/19 02:09:30;;;;;;;7.23;7.13;;;15.10;99.90;;;;;;5082379;28;20491;-68
2023/09/19 02:11:57;;;;;;;7.10;7.00;;;15.10;99.90;;;;;;5075026;28;20466;-68
2023/09/19 02:14:24;;;;;;;7.23;7.13;;;15.00;99.90;;;;;;5087895;28;20965;-68
2023/09/19 02:16:51;;;;;;;7.00;6.90;;;15.00;99.90;;;;;;5088082;28;20454;-69
2023/09/19 02:19:20;;;;;;;7.40;7.30;;;15.00;99.90;;;;;;5081389;28;20498;-68
2023/09/19 02:21:49;;;;;;;7.73;7.63;;;14.90;99.90;;;;;;5081837;28;20514;-68
2023/09/19 02:24:16;;;;;;;7.97;7.87;;;14.90;99.90;;;;;;5075273;28;20865;-68
2023/09/19 02:26:43;;;;;;;8.70;8.60;;;14.90;99.90;;;;;;5087307;28;20503;-67
2023/09/19 02:29:12;;;;;;;8.90;8.73;;;14.90;99.90;;;;;;5075801;28;20517;-68
2023/09/19 02:31:41;;;;;;;9.20;9.00;;;14.90;99.90;;;;;;5053780;28;20479;-68
2023/09/19 02:34:09;;;;;;;9.23;9.03;;;14.90;99.90;;;;;;5064166;28;20448;-67
2023/09/19 02:36:39;;;;;;;8.87;8.73;;;14.80;99.90;;;;;;5058057;28;20464;-68
2023/09/19 02:39:08;;;;;;;9.23;9.03;;;14.70;99.90;;;;;;5060725;28;20550;-67
2023/09/19 02:41:36;;;;;;;9.70;9.50;;;14.70;99.90;;;;;;5067573;28;20491;-68
2023/09/19 02:44:07;;;;;;;9.23;9.03;;;14.80;99.90;;;;;;5069049;28;20620;-68
2023/09/19 02:46:36;;;;;;;9.20;9.00;;;14.70;99.90;;;;;;5061847;28;20545;-68
2023/09/19 02:49:05;;;;;;;9.57;9.37;;;14.80;99.90;;;;;;5065851;28;20451;-68
2023/09/19 02:51:33;;;;;;;9.17;8.97;;;14.70;99.90;;;;;;5060812;28;20457;-69
2023/09/19 02:54:03;;;;;;;9.17;8.97;;;14.70;99.90;;;;;;5061443;28;20461;-67
2023/09/19 02:56:30;;;;;;;8.73;8.63;;;14.70;99.90;;;;;;5067253;28;20455;-69
2023/09/19 02:58:57;;;;;;;8.87;8.70;;;14.70;99.90;;;;;;5067605;28;20969;-67
2023/09/19 03:01:24;;;;;;;8.47;8.37;;;14.60;99.90;;;;;;5080381;28;20486;-69
2023/09/19 03:03:51;;;;;;;7.90;7.80;;;14.60;99.90;;;;;;5061478;28;20493;-68
2023/09/19 03:06:20;;;;;;;8.53;8.43;;;14.60;99.90;;;;;;5069487;28;20513;-69
2023/09/19 03:08:48;;;;;;;8.43;8.33;;;14.60;99.90;;;;;;5069434;28;21054;-68
2023/09/19 03:11:18;;;;;;;7.93;7.83;;;14.50;99.90;;;;;;5071105;28;20942;-67
2023/09/19 03:13:47;;;;;;;8.10;8.00;;;14.50;99.90;;;;;;5054799;28;20750;-67
2023/09/19 03:16:15;;;;;;;8.00;7.90;;;14.50;99.90;;;;;;5067674;28;20462;-67
2023/09/19 03:18:41;;;;;;;7.50;7.40;;;14.50;99.90;;;;;;5071242;28;20447;-67
2023/09/19 03:21:08;;;;;;;7.33;7.23;;;14.50;99.90;;;;;;5061137;28;20475;-68
2023/09/19 03:23:35;;;;;;;7.13;7.03;;;14.50;99.90;;;;;;5062027;28;20459;-67
2023/09/19 03:26:02;;;;;;;7.77;7.67;;;14.40;99.90;;;;;;5055512;28;20496;-68
2023/09/19 03:28:30;;;;;;;7.47;7.37;;;14.40;99.90;;;;;;5077370;28;20957;-67
2023/09/19 03:31:01;;;;;;;6.93;6.83;;;14.40;99.90;;;;;;5086998;28;20526;-67
2023/09/19 03:33:28;;;;;;;7.10;7.00;;;14.40;99.90;;;;;;5086598;28;20541;-69
2023/09/19 03:35:58;;;;;;;7.23;7.13;;;14.40;99.90;;;;;;5090617;28;20497;-68
2023/09/19 03:38:26;;;;;;;6.97;6.87;;;14.40;99.90;;;;;;5083094;28;20888;-68
2023/09/19 03:40:53;;;;;;;6.60;6.50;;;14.40;99.90;;;;;;5074058;28;20969;-67
2023/09/19 03:43:20;;;;;;;6.37;6.27;;;14.40;99.90;;;;;;5082500;28;20497;-68
2023/09/19 03:45:50;;;;;;;7.23;7.13;;;14.40;99.90;;;;;;5089236;28;20480;-68
2023/09/19 03:48:17;;;;;;;7.07;6.97;;;14.40;99.90;;;;;;5085540;28;20516;-67
2023/09/19 03:50:44;;;;;;;6.80;6.70;;;14.30;99.90;;;;;;5086651;28;20534;-66
2023/09/19 03:53:12;;;;;;;7.23;7.13;;;14.40;99.90;;;;;;5083653;28;20565;-67
2023/09/19 03:55:38;;;;;;;7.20;7.10;;;14.40;99.90;;;;;;5082522;28;20744;-68
2023/09/19 03:58:06;;;;;;;8.30;8.20;;;14.40;99.90;;;;;;5080278;28;20499;-68
2023/09/19 04:00:34;;;;;;;7.40;7.30;;;14.40;99.90;;;;;;5081915;28;20463;-68
2023/09/19 04:03:06;;;;;;;8.27;8.17;;;14.40;99.90;;;;;;5081248;28;20500;-67
2023/09/19 04:05:33;;;;;;;8.23;8.13;;;14.40;99.90;;;;;;5078090;28;20455;-67
2023/09/19 04:08:00;;;;;;;8.37;8.27;;;14.40;99.90;;;;;;5083278;28;20500;-68
2023/09/19 04:10:28;;;;;;;8.60;8.50;;;14.40;99.90;;;;;;5083076;28;20466;-68
2023/09/19 04:12:55;;;;;;;8.83;8.63;;;14.40;99.90;;;;;;5090665;28;20511;-68
2023/09/19 04:15:23;;;;;;;8.43;8.33;;;14.40;99.90;;;;;;5080559;28;20460;-69
2023/09/19 04:17:50;;;;;;;9.30;9.10;;;14.40;99.90;;;;;;5090259;28;20933;-68
2023/09/19 04:20:19;;;;;;;8.90;8.70;;;14.40;99.90;;;;;;5089333;28;20473;-68
2023/09/19 04:22:47;;;;;;;8.70;8.60;;;14.40;99.90;;;;;;5084126;28;20498;-68
2023/09/19 04:25:14;;;;;;;8.50;8.40;;;14.40;99.90;;;;;;5086215;28;20936;-67
2023/09/19 04:27:41;;;;;;;8.77;8.67;;;14.40;99.90;;;;;;5068745;28;20812;-68
2023/09/19 04:30:11;;;;;;;8.70;8.60;;;14.40;99.90;;;;;;5090198;28;20788;-68
2023/09/19 04:32:40;;;;;;;8.50;8.40;;;14.40;99.90;;;;;;5100408;28;20481;-67
2023/09/19 04:35:08;;;;;;;8.70;8.60;;;14.40;99.90;;;;;;5080165;28;20453;-68
2023/09/19 04:37:40;;;;;;;9.10;8.90;;;14.30;99.90;;;;;;5083538;28;20485;-68
2023/09/19 04:40:12;;;;;;;9.00;8.80;;;14.30;99.90;;;;;;5071557;28;20512;-68
2023/09/19 04:42:41;;;;;;;9.20;9.00;;;14.40;99.90;;;;;;5074171;28;20566;-68
2023/09/19 04:45:10;;;;;;;9.20;9.00;;;14.30;99.90;;;;;;5089636;28;20853;-68
2023/09/19 04:47:38;;;;;;;9.57;9.37;;;14.40;99.90;;;;;;5085763;28;20499;-68
2023/09/19 04:50:08;;;;;;;9.60;9.40;;;14.40;99.90;;;;;;5087297;28;20552;-68
2023/09/19 04:52:35;;;;;;;9.67;9.47;;;14.40;99.90;;;;;;5082392;28;20466;-68
2023/09/19 04:55:04;;;;;;;9.83;9.63;;;14.40;99.90;;;;;;5082235;28;20457;-67
2023/09/19 04:57:31;;;;;;;10.00;9.80;;;14.40;99.90;;;;;;5080147;28;20516;-68
2023/09/19 04:59:59;;;;;;;10.50;10.30;;;14.50;99.90;;;;;;5071984;28;20493;-68
2023/09/19 05:02:25;;;;;;;10.00;9.80;;;14.50;99.90;;;;;;5075684;28;20847;-68
2023/09/19 05:04:53;;;;;;;10.50;10.30;;;14.50;99.90;;;;;;5078248;28;20458;-68
2023/09/19 05:07:22;;;;;;;10.50;10.30;;;14.60;99.90;;;;;;5073788;28;20972;-68
2023/09/19 05:09:49;;;;;;;10.70;10.50;;;14.60;99.90;;;;;;5082010;28;20454;-68
2023/09/19 05:12:19;;;;;;;10.63;10.43;;;14.70;99.90;;;;;;5077328;28;20468;-69
2023/09/19 05:14:46;;;;;;;10.97;10.67;;;14.70;99.90;;;;;;5072142;28;20677;-68
2023/09/19 05:17:16;;;;;;;10.90;10.60;;;14.70;99.90;;;;;;5075114;28;20458;-67
2023/09/19 05:19:43;;;;;;;11.00;10.70;;;14.70;99.90;;;;;;5076055;28;20535;-67
2023/09/19 05:22:12;;;;;;;11.17;10.87;;;14.70;99.90;;;;;;5079050;28;20478;-67
2023/09/19 05:24:39;;;;;;;10.57;10.37;;;14.70;99.90;;;;;;5077444;28;20467;-69
2023/09/19 05:27:07;;;;;;;10.73;10.50;;;14.70;99.90;;;;;;5078428;28;20571;-68
2023/09/19 05:29:36;;;;;;;10.57;10.37;;;14.70;99.90;;;;;;5067892;28;20487;-69
2023/09/19 05:32:03;;;;;;;10.13;9.93;;;14.70;99.90;;;;;;5074712;28;20495;-68
2023/09/19 05:34:30;;;;;;;10.30;10.10;;;14.70;99.90;;;;;;5079844;28;20451;-70
2023/09/19 05:36:57;;;;;;;10.47;10.27;;;14.70;99.90;;;;;;5067014;28;20461;-69
2023/09/19 05:39:26;;;;;;;10.33;10.13;;;14.80;99.90;;;;;;5082123;28;20473;-68
2023/09/19 05:41:53;;;;;;;11.10;10.80;;;14.80;99.90;;;;;;5074921;28;20477;-69
2023/09/19 05:44:20;;;;;;;10.10;9.90;;;14.90;99.90;;;;;;5075552;28;20457;-69
2023/09/19 05:46:49;;;;;;;10.20;10.00;;;14.90;99.90;;;;;;5079799;28;20490;-69
2023/09/19 05:49:17;;;;;;;10.33;10.13;;;14.90;99.90;;;;;;5073001;28;20473;-69
2023/09/19 05:51:47;;;;;;;10.40;10.20;;;14.90;99.90;;;;;;5071256;28;20536;-69
2023/09/19 05:54:15;;;;;;;10.43;10.23;;;14.80;99.90;;;;;;5070120;28;20473;-69
2023/09/19 05:56:42;;;;;;;10.27;10.07;;;14.80;99.90;;;;;;5080878;28;20577;-69
2023/09/19 05:59:11;;;;;;;10.00;9.80;;;14.90;99.90;;;;;;5081156;28;20461;-69
2023/09/19 06:01:38;;;;;;;10.20;10.00;;;14.90;99.90;;;;;;5071929;28;20467;-69
2023/09/19 06:04:06;;;;;;;10.40;10.20;;;15.00;99.90;;;;;;5077466;28;20521;-69
2023/09/19 06:06:36;;;;;;;10.50;10.30;;;14.90;99.90;;;;;;5082825;28;20442;-69
2023/09/19 06:09:05;;;;;;;11.17;10.87;;;14.90;99.90;;;;;;5085961;28;20473;-69
2023/09/19 06:11:34;;;;;;;10.53;10.33;;;14.80;99.90;;;;;;5075228;28;21071;-69
2023/09/19 06:14:02;;;;;;;10.00;9.80;;;14.80;99.90;;;;;;5081391;28;20518;-69
2023/09/19 06:16:28;;;;;;;10.30;10.10;;;14.90;99.90;;;;;;5083279;28;20961;-70
2023/09/19 06:18:56;;;;;;;10.70;10.50;;;15.00;99.90;;;;;;5076985;28;20552;-70
2023/09/19 06:21:26;;;;;;;10.27;10.07;;;15.00;99.90;;;;;;5074236;28;20841;-69
2023/09/19 06:23:53;;;;;;;10.70;10.50;;;15.10;99.90;;;;;;5083202;28;20847;-70
2023/09/19 06:26:21;;;;;;;10.57;10.37;;;15.10;99.90;;;;;;5084211;28;20462;-69
2023/09/19 06:28:47;;;;;;;10.10;9.90;;;15.00;99.90;;;;;;5081207;28;20490;-69
2023/09/19 06:31:14;;;;;;;10.40;10.20;;;15.00;99.90;;;;;;5083248;28;21082;-69
2023/09/19 06:33:43;;;;;;;10.13;9.93;;;15.00;99.90;;;;;;5073928;28;21385;-68
2023/09/19 06:36:11;;;;;;;10.53;10.33;;;15.00;99.90;;;;;;5076671;28;20459;-69
2023/09/19 06:38:40;;;;;;;10.73;10.53;;;15.00;99.90;;;;;;5087117;28;20937;-70
2023/09/19 06:41:08;;;;;;;10.67;10.47;;;15.10;99.90;;;;;;5082691;28;20877;-70
2023/09/19 06:43:36;;;;;;;10.50;10.30;;;15.10;99.90;;;;;;5079980;28;21313;-69
2023/09/19 06:46:03;;;;;;;10.43;10.23;;;15.20;99.90;;;;;;5078320;28;20466;-69
2023/09/19 06:48:30;;;;;;;10.67;10.47;;;15.20;99.90;;;;;;5078678;28;20459;-70
2023/09/19 06:51:02;;;;;;;11.03;10.73;;;15.20;99.90;;;;;;5072655;28;20469;-70
2023/09/19 06:53:31;;;;;;;11.27;10.97;;;15.30;99.90;;;;;;5073807;28;21041;-70
2023/09/19 06:56:00;;;;;;;11.00;10.70;;;15.20;99.90;;;;;;5074525;28;20472;-69
2023/09/19 06:58:27;;;;;;;11.20;10.90;;;15.30;99.90;;;;;;5084792;28;20485;-71
2023/09/19 07:00:54;;;;;;;10.80;10.60;;;15.20;99.90;;;;;;5081926;28;20462;-69
2023/09/19 07:03:23;;;;;;;11.33;11.03;;;15.30;99.90;;;;;;5073706;28;20480;-69
2023/09/19 07:05:49;;;;;;;11.47;11.17;;;15.40;99.90;;;;;;5067418;28;20462;-70
2023/09/19 07:08:16;;;;;;;11.30;11.00;;;15.40;99.90;;;;;;5077745;28;20449;-71
2023/09/19 07:10:48;;;;;;;11.00;10.70;;;15.40;99.90;;;;;;5083743;28;20517;-69
2023/09/19 07:13:17;;;;;;;11.17;10.87;;;15.50;99.90;;;;;;5073569;28;21038;-70
2023/09/19 07:15:47;;;;;;;11.17;10.87;;;15.60;99.90;;;;;;5085556;28;20558;-68
2023/09/19 07:18:14;;;;;;;11.10;10.80;;;15.60;99.90;;;;;;5074375;28;20482;-68
2023/09/19 07:20:49;;;;;;;11.63;11.33;;;15.60;99.90;;;;;;5075038;28;20539;-70
2023/09/19 07:23:18;;;;;;;10.90;10.60;;;15.70;99.90;;;;;;5082193;28;20579;-69
2023/09/19 07:25:46;;;;;;;11.20;10.90;;;15.80;99.90;;;;;;5074008;28;20469;-71
2023/09/19 07:28:13;;;;;;;11.50;11.20;;;15.90;99.90;;;;;;5082979;28;20482;-69
2023/09/19 07:30:42;;;;;;;11.50;11.20;;;15.90;99.90;;;;;;5062923;28;20450;-70
2023/09/19 07:33:11;;;;;;;12.13;11.83;;;16.00;99.90;;;;;;5058090;28;20950;-70
2023/09/19 07:35:39;;;;;;;11.70;11.40;;;15.80;99.90;;;;;;5060235;28;20904;-71
2023/09/19 07:38:06;;;;;;;11.77;11.47;;;15.90;99.90;;;;;;5056312;28;20471;-69
2023/09/19 07:40:35;;;;;;;11.53;11.23;;;16.10;99.90;;;;;;5060317;28;20459;-70
2023/09/19 07:43:02;;;;;;;12.33;12.03;;;16.40;99.90;;;;;;5060677;28;20563;-69
2023/09/19 07:45:29;;;;;;;13.10;12.70;;;16.30;99.90;;;;;;5060405;28;21508;-69
2023/09/19 07:47:58;;;;;;;12.70;12.30;;;16.40;99.90;;;;;;5058184;28;20530;-69
2023/09/19 07:50:26;;;;;;;12.30;12.00;;;16.40;99.90;;;;;;5065618;28;20458;-70
2023/09/19 07:52:56;;;;;;;12.43;12.13;;;16.40;99.90;;;;;;5056638;28;20495;-69
2023/09/19 07:55:25;;;;;;;13.27;12.87;;;16.50;99.90;;;;;;5055443;28;20463;-71
2023/09/19 07:57:52;;;;;;;12.20;11.90;;;16.70;99.90;;;;;;5055581;28;20967;-70
2023/09/19 08:00:19;;;;;;;12.40;12.10;;;16.60;99.90;;;;;;5064478;28;20451;-69
2023/09/19 08:02:47;;;;;;;12.20;11.90;;;16.50;99.90;;;;;;5058005;28;20975;-67
2023/09/19 08:05:16;;;;;;;12.50;12.20;;;16.60;99.90;;;;;;5060874;28;20552;-66
2023/09/19 08:07:48;;;;;;;12.60;12.30;;;16.70;99.90;;;;;;5068654;28;20450;-67
2023/09/19 08:10:19;;;;;;;12.90;12.50;;;16.90;99.90;;;;;;5067101;28;20439;-66
2023/09/19 08:12:47;;;;;;;12.30;12.00;;;16.90;99.90;;;;;;5051313;28;20468;-69
2023/09/19 08:15:15;;;;;;;12.80;12.40;;;16.90;99.90;;;;;;5063267;28;20577;-68
2023/09/19 08:17:42;;;;;;;13.20;12.80;;;16.90;99.90;;;;;;5059737;28;20874;-67
2023/09/19 08:20:15;;;;;;;13.70;13.30;;;17.10;99.90;;;;;;5061426;28;20853;-66
2023/09/19 08:22:47;;;;;;;12.80;12.40;;;17.10;99.90;;;;;;5056082;28;20965;-67
2023/09/19 08:25:16;;;;;;;13.07;12.67;;;17.30;99.90;;;;;;5061034;28;20538;-68
2023/09/19 08:27:43;;;;;;;13.10;12.70;;;17.30;99.90;;;;;;5067671;28;20456;-66
2023/09/19 08:30:11;;;;;;;13.43;13.03;;;17.40;99.90;;;;;;5072971;28;20466;-66
2023/09/19 08:32:39;;;;;;;13.30;12.90;;;17.40;99.90;;;;;;5075078;28;21004;-67
2023/09/19 08:35:08;;;;;;;13.97;13.57;;;17.40;99.90;;;;;;5073875;28;20469;-67
2023/09/19 08:37:35;;;;;;;13.47;13.07;;;17.50;99.90;;;;;;5082006;28;20483;-69
2023/09/19 08:40:09;;;;;;;14.13;13.73;;;17.70;99.90;;;;;;5075820;28;20812;-67
2023/09/19 08:42:49;;;;;;;14.03;13.63;;;17.80;99.90;;;;;;5081526;28;20450;-67
2023/09/19 08:45:17;;;;;;;13.80;13.40;;;17.90;99.90;;;;;;5086564;28;20545;-66
2023/09/19 08:47:48;;;;;;;14.10;13.70;;;18.00;99.90;;;;;;5077779;28;20493;-66
2023/09/19 08:50:25;;;;;;;13.90;13.50;;;18.10;99.90;;;;;;5087091;28;20541;-68
2023/09/19 08:52:54;;;;;;;13.90;13.50;;;18.20;99.90;;;;;;5086245;28;20468;-67
2023/09/19 08:55:27;;;;;;;14.00;13.60;;;18.30;99.90;;;;;;5083642;28;21021;-67
2023/09/19 08:58:01;;;;;;;14.10;13.70;;;18.20;99.90;;;;;;5080454;28;20941;-68
2023/09/19 09:00:30;;;;;;;14.50;14.00;;;18.30;99.90;;;;;;5074630;28;20465;-67
2023/09/19 09:02:58;;;;;;;13.80;13.40;;;18.30;99.90;;;;;;5086436;28;20912;-69
2023/09/19 09:05:26;;;;;;;14.53;14.03;;;18.40;99.90;;;;;;5086569;28;20457;-66
2023/09/19 09:07:56;;;;;;;14.40;13.90;;;18.30;99.90;;;;;;5086777;28;20473;-69
2023/09/19 09:10:25;;;;;;;14.33;13.83;;;18.30;99.90;;;;;;5079397;28;21019;-68
2023/09/19 09:12:54;;;;;;;14.10;13.60;;;18.30;99.90;;;;;;5076290;28;20458;-66
2023/09/19 09:15:23;;;;;;;14.10;13.60;;;18.60;99.90;;;;;;5074201;28;20469;-66
2023/09/19 09:17:50;;;;;;;14.10;13.63;;;18.70;99.90;;;;;;5078072;28;20450;-67
2023/09/19 09:20:18;;;;;;;14.33;13.83;;;18.80;99.90;;;;;;5080436;28;20458;-69
2023/09/19 09:22:54;;;;;;;14.53;14.03;;;18.90;99.90;;;;;;5084238;28;20895;-67
2023/09/19 09:25:23;;;;;;;14.50;14.00;;;18.70;99.90;;;;;;5081914;28;20481;-67
2023/09/19 09:28:03;;;;;;;14.53;14.03;;;18.60;99.90;;;;;;5076291;28;20466;-68
2023/09/19 09:30:37;;;;;;;14.20;13.70;;;18.80;99.90;;;;;;5059539;28;20463;-66
2023/09/19 09:33:11;;;;;;;14.77;14.27;;;18.80;99.90;;;;;;5063198;28;20473;-67
2023/09/19 09:35:48;;;;;;;14.70;14.20;;;19.00;99.90;;;;;;5064880;28;21074;-67
2023/09/19 09:38:18;;;;;;;14.50;14.00;;;19.20;99.90;;;;;;5055297;28;20468;-68
2023/09/19 09:40:58;;;;;;;14.80;14.30;;;19.30;99.90;;;;;;5054795;28;21017;-67
2023/09/19 09:43:38;;;;;;;14.80;14.30;;;19.30;99.90;;;;;;5059387;28;20470;-68
2023/09/19 09:51:39;;;;;;;14.70;14.20;;;20.00;99.90;;;;;;5041580;28;20770;-67
2023/09/19 09:54:14;;;;;;;14.40;13.90;;;20.10;99.90;;;;;;5063194;28;20554;-68
2023/09/19 09:56:54;;;;;;;14.77;14.27;;;20.50;99.90;;;;;;5054045;28;20473;-68
2023/09/19 09:59:23;;;;;;;14.53;14.03;;;20.60;99.90;;;;;;5062034;28;20981;-67
2023/09/19 10:01:53;;;;;;;14.67;14.17;;;20.90;99.90;;;;;;5061885;28;20455;-68
2023/09/19 10:04:31;;;;;;;14.70;14.20;;;20.50;99.90;;;;;;5060035;28;20490;-68
2023/09/19 10:07:05;;;;;;;13.90;13.50;;;20.80;99.90;;;;;;5061217;28;20796;-68
2023/09/19 10:09:47;;;;;;;14.27;13.77;;;20.90;99.90;;;;;;5055624;28;20504;-67
2023/09/19 10:12:16;;;;;;;14.40;13.90;;;21.00;99.90;;;;;;5045667;28;20533;-67
2023/09/19 10:14:47;;;;;;;14.50;14.00;;;21.10;99.90;;;;;;5055467;28;20761;-69
2023/09/19 10:17:20;;;;;;;13.70;13.30;;;20.90;99.90;;;;;;5054849;28;20462;-67
2023/09/19 10:19:57;;;;;;;13.77;13.37;;;20.70;99.90;;;;;;5056517;28;20447;-69
2023/09/19 10:22:26;;;;;;;14.10;13.70;;;20.70;99.90;;;;;;5060679;28;20933;-69
2023/09/19 10:24:54;;;;;;;14.00;13.60;;;20.80;99.90;;;;;;5056564;28;20495;-68
2023/09/19 10:27:22;;;;;;;14.10;13.70;;;20.60;99.90;;;;;;5064907;28;21316;-68
2023/09/19 10:29:51;;;;;;;14.50;14.00;;;20.50;99.90;;;;;;5069255;28;20482;-68
2023/09/19 10:32:19;;;;;;;13.70;13.30;;;20.30;99.90;;;;;;5079266;28;20499;-69
2023/09/19 10:34:48;;;;;;;14.63;14.13;;;20.20;99.90;;;;;;5085234;28;20956;-68
2023/09/19 10:37:17;;;;;;;14.30;13.80;;;20.30;99.90;;;;;;5083416;28;20458;-68
2023/09/19 10:39:47;;;;;;;14.43;13.93;;;20.30;99.90;;;;;;5079889;28;20454;-68
2023/09/19 10:42:21;;;;;;;14.00;13.60;;;20.60;99.90;;;;;;5077547;28;20476;-68
2023/09/19 10:44:55;;;;;;;13.70;13.30;;;20.60;99.90;;;;;;5079326;28;20861;-67
2023/09/19 10:47:24;;;;;;;14.00;13.60;;;20.40;99.90;;;;;;5082037;28;20985;-67
2023/09/19 10:49:52;;;;;;;13.73;13.33;;;20.00;99.90;;;;;;5076435;28;20461;-68
2023/09/19 10:52:25;;;;;;;14.40;13.90;;;20.10;99.90;;;;;;5082320;28;20492;-68
2023/09/19 10:54:58;;;;;;;14.17;13.73;;;19.90;99.90;;;;;;5076847;28;20978;-68
2023/09/19 10:57:28;;;;;;;14.03;13.63;;;20.00;99.90;;;;;;5081111;28;20465;-67
2023/09/19 11:00:21;;;;;;;14.70;14.20;;;20.20;99.90;;;;;;5078192;28;20459;-68
2023/09/19 11:03:22;;;;;;;14.50;14.00;;;20.80;99.90;;;;;;5073549;28;20542;-68
2023/09/19 11:06:09;;;;;;;14.60;14.10;;;21.10;99.90;;;;;;5078792;28;20505;-68
2023/09/19 11:09:04;;;;;;;15.00;14.50;;;21.10;99.90;;;;;;5083952;28;20938;-69
2023/09/19 11:11:50;;;;;;;14.23;13.83;;;21.20;99.90;;;;;;5078017;28;21015;-69
2023/09/19 11:14:40;;;;;;;14.70;14.20;;;21.20;99.90;;;;;;5081041;28;20797;-68
2023/09/19 11:17:37;;;;;;;14.43;14.00;;;21.40;99.90;;;;;;5083105;28;20490;-68
2023/09/19 11:20:35;;;;;;;14.80;14.30;;;21.50;99.90;;;;;;5084876;28;20478;-68
2023/09/19 11:23:26;;;;;;;14.30;13.90;;;21.90;99.90;;;;;;5088440;28;20873;-68
2023/09/19 11:25:54;;;;;;;14.40;14.00;;;22.10;99.90;;;;;;5086720;28;20504;-68
2023/09/19 11:28:36;;;;;;;14.40;14.00;;;22.60;99.90;;;;;;5069307;28;20528;-68
2023/09/19 11:31:59;;;;;;;14.23;13.83;;;22.50;99.90;;;;;;5064243;28;20451;-68
2023/09/19 11:34:48;;;;;;;14.50;14.10;;;22.20;99.90;;;;;;5063568;28;20481;-68
2023/09/19 11:38:02;;;;;;;14.50;14.10;;;22.30;99.90;;;;;;5065480;28;21009;-68
2023/09/19 11:40:30;;;;;;;14.33;13.93;;;22.70;99.90;;;;;;5059166;28;20512;-69
2023/09/19 11:42:57;;;;;;;14.50;14.10;;;22.80;99.90;;;;;;5066872;28;20454;-68
2023/09/19 11:46:01;;;;;;;14.63;14.23;;;22.40;99.90;;;;;;5059455;28;20487;-68
2023/09/19 11:48:30;;;;;;;14.33;13.93;;;22.80;99.90;;;;;;5063472;28;20841;-68
2023/09/19 11:50:59;;;;;;;14.40;14.00;;;23.10;99.90;;;;;;5064786;28;20667;-69
2023/09/19 11:53:35;;;;;;;14.70;14.30;;;23.00;99.90;;;;;;5062083;28;20455;-69
2023/09/19 11:56:06;;;;;;;14.53;14.13;;;22.70;99.90;;;;;;5055715;28;20545;-68
2023/09/19 11:58:34;;;;;;;15.17;14.67;;;22.90;99.90;;;;;;5053841;28;21069;-70
2023/09/19 12:01:08;;;;;;;14.60;14.20;;;23.00;99.90;;;;;;5058311;28;20455;-69
2023/09/19 12:03:41;;;;;;;14.50;14.10;;;23.00;99.90;;;;;;5062305;28;20503;-69
2023/09/19 12:06:16;;;;;;;14.40;14.00;;;23.30;99.90;;;;;;5055967;28;20573;-70
2023/09/19 12:08:43;;;;;;;15.20;14.70;;;23.50;99.90;;;;;;5062937;28;20461;-68
2023/09/19 12:11:17;;;;;;;14.40;14.00;;;23.60;99.90;;;;;;5054114;28;20494;-70
2023/09/19 12:13:46;;;;;;;14.57;14.17;;;23.90;99.90;;;;;;5062835;28;20861;-71
2023/09/19 12:16:17;;;;;;;14.20;13.80;;;24.10;99.90;;;;;;5063829;28;20459;-70
2023/09/19 12:18:46;;;;;;;14.30;13.90;;;24.10;99.90;;;;;;5053763;28;20467;-71
2023/09/19 12:21:31;;;;;;;14.37;13.97;;;23.80;99.90;;;;;;5066167;28;20538;-68
2023/09/19 12:24:05;;;;;;;14.80;14.33;;;23.70;99.90;;;;;;5065439;28;21301;-71
2023/09/19 12:26:40;;;;;;;13.60;13.20;;;23.90;99.90;;;;;;5049646;28;20470;-69
2023/09/19 12:29:17;;;;;;;13.77;13.37;;;23.80;99.90;;;;;;5064713;28;20485;-68
2023/09/19 12:31:57;;;;;;;14.40;14.00;;;23.70;99.90;;;;;;5085807;28;20480;-69
2023/09/19 12:34:27;;;;;;;14.70;14.30;;;24.40;99.90;;;;;;5078745;28;20465;-68
2023/09/19 12:37:20;;;;;;;13.57;13.17;;;24.10;99.90;;;;;;5082490;28;20462;-71
2023/09/19 12:39:50;;;;;;;13.53;13.13;;;24.10;99.90;;;;;;5073907;28;20501;-68
2023/09/19 12:42:18;;;;;;;13.73;13.33;;;24.40;99.90;;;;;;5080984;28;21152;-71
2023/09/19 12:44:48;;;;;;;13.80;13.40;;;24.50;99.90;;;;;;5082578;28;20858;-69
2023/09/19 12:47:22;;;;;;;14.07;13.67;;;24.40;99.90;;;;;;5082779;28;21013;-68
2023/09/19 12:50:16;;;;;;;14.23;13.83;;;23.80;99.90;;;;;;5076373;28;20903;-68
2023/09/19 12:52:47;;;;;;;13.77;13.37;;;23.60;99.90;;;;;;5080532;28;20476;-68
2023/09/19 12:55:25;;;;;;;13.43;13.03;;;23.60;99.90;;;;;;5082739;28;20458;-67
2023/09/19 12:58:10;;;;;;;13.90;13.50;;;24.00;99.90;;;;;;5074627;28;20952;-67
2023/09/19 13:00:39;;;;;;;13.83;13.43;;;24.00;99.90;;;;;;5082509;28;20441;-68